Terminal Aerodrome Forecast
Issued by NWS

Home | Current Version | Previous Version | Text Only | Print | Product List | Glossary On
Versions: 1 2 3 4 5 6 7 8 9 10 11 12 13 14 15 16 17 18 19 20 21 22
000
FTUS45 KBOU 250154 AAA
TAFBJC
TAF AMD
KBJC 250154Z 2502/2524 30010KT P6SM FEW120
     FM250500 25009KT P6SM FEW120 SCT200
     FM251300 29010KT P6SM FEW080 BKN200
     FM251700 32012KT P6SM FEW080 BKN200
     FM252000 01015G22KT P6SM VCTS SCT070CB BKN120 PROB30 2520/2524
      VRB20G32KT -TSRA BKN060CB=

USA.gov is the U.S. government's official web portal to all federal, state and local government web resources and services.